Time;durP1;ratioP1;P1;durP2;ratioP2;P2;SDS_P1;SDS_P2;PMS_P1;PMS_P2;Temp;Humidity;BMP_temperature;BMP_pressure;BME280_temperature;BME280_humidity;BME280_pressure;Samples;Min_cycle;Max_cycle;Signal;HPM_P1;HPM_P2
2022/10/10 00:02:11;;;;;;;10.90;4.88;;;;;;;;;;5089851;28;20459;-80
2022/10/10 00:04:38;;;;;;;7.47;4.93;;;;;;;;;;5090868;28;20430;-80
2022/10/10 00:07:04;;;;;;;11.57;4.65;;;;;;;;;;5091042;28;20434;-80
2022/10/10 00:09:33;;;;;;;9.00;4.93;;;;;;;;;;5091541;28;20916;-80
2022/10/10 00:12:00;;;;;;;8.77;4.15;;;;;;;;;;5088536;28;20587;-80
2022/10/10 00:14:28;;;;;;;7.82;4.40;;;;;;;;;;5091554;28;20485;-80
2022/10/10 00:16:54;;;;;;;7.17;4.00;;;;;;;;;;5090169;28;20522;-80
2022/10/10 00:19:23;;;;;;;7.60;4.28;;;;;;;;;;5090670;28;20432;-80
2022/10/10 00:21:49;;;;;;;8.20;3.83;;;;;;;;;;5090744;28;20515;-80
2022/10/10 00:24:18;;;;;;;7.57;3.80;;;;;;;;;;5092641;28;20455;-80
2022/10/10 00:26:46;;;;;;;6.75;3.60;;;;;;;;;;5092912;28;20415;-80
2022/10/10 00:29:12;;;;;;;7.23;3.40;;;;;;;;;;5090968;28;20519;-81
2022/10/10 00:31:40;;;;;;;8.50;3.80;;;;;;;;;;5090938;28;20435;-80
2022/10/10 00:34:08;;;;;;;6.30;3.50;;;;;;;;;;5090669;28;20439;-80
2022/10/10 00:36:34;;;;;;;5.47;3.30;;;;;;;;;;5088658;28;20428;-80
2022/10/10 00:39:01;;;;;;;6.78;3.80;;;;;;;;;;5093638;28;20437;-80
2022/10/10 00:41:28;;;;;;;8.32;3.53;;;;;;;;;;5089261;28;20423;-80
2022/10/10 00:44:01;;;;;;;8.68;3.47;;;;;;;;;;5091567;28;20430;-80
2022/10/10 00:46:28;;;;;;;5.00;3.33;;;;;;;;;;5090812;28;20430;-80
2022/10/10 00:48:56;;;;;;;8.75;3.47;;;;;;;;;;5090283;28;20437;-80
2022/10/10 00:51:23;;;;;;;7.75;3.53;;;;;;;;;;5091273;28;20444;-80
2022/10/10 00:53:51;;;;;;;6.50;3.50;;;;;;;;;;5095401;28;20438;-80
2022/10/10 00:56:23;;;;;;;9.73;3.40;;;;;;;;;;5094530;28;20414;-80
2022/10/10 00:58:53;;;;;;;5.28;3.65;;;;;;;;;;5096026;28;20418;-80
2022/10/10 01:01:21;;;;;;;5.32;3.70;;;;;;;;;;5094321;28;20414;-80
2022/10/10 01:03:49;;;;;;;4.78;3.45;;;;;;;;;;5092906;28;20430;-80
2022/10/10 01:06:24;;;;;;;6.68;3.38;;;;;;;;;;5093696;28;20428;-80
2022/10/10 01:08:51;;;;;;;5.70;3.40;;;;;;;;;;5091328;28;20447;-80
2022/10/10 01:11:24;;;;;;;5.75;3.55;;;;;;;;;;5092611;28;20504;-80
2022/10/10 01:13:55;;;;;;;5.40;3.37;;;;;;;;;;5093864;28;20463;-80
2022/10/10 01:16:27;;;;;;;6.10;3.70;;;;;;;;;;5093520;28;20849;-80
2022/10/10 01:18:55;;;;;;;7.60;3.60;;;;;;;;;;5093643;28;20433;-80
2022/10/10 01:21:28;;;;;;;5.88;3.90;;;;;;;;;;5094049;28;20427;-80
2022/10/10 01:24:23;;;;;;;5.40;3.20;;;;;;;;;;5095577;28;20410;-80
2022/10/10 01:27:10;;;;;;;6.53;3.57;;;;;;;;;;5090070;28;20419;-80
2022/10/10 01:29:41;;;;;;;5.43;3.60;;;;;;;;;;5093346;28;20418;-79
2022/10/10 01:32:09;;;;;;;8.05;4.07;;;;;;;;;;5114640;27;20425;-80
2022/10/10 01:34:39;;;;;;;7.78;4.53;;;;;;;;;;5094064;28;20937;-80
2022/10/10 01:37:10;;;;;;;9.25;3.70;;;;;;;;;;5091298;28;20431;-80
2022/10/10 01:39:40;;;;;;;10.85;3.65;;;;;;;;;;5093501;28;20906;-80
2022/10/10 01:42:08;;;;;;;8.30;3.40;;;;;;;;;;5091683;28;20422;-80
2022/10/10 01:44:34;;;;;;;7.88;3.83;;;;;;;;;;5092813;28;20488;-80
2022/10/10 01:47:02;;;;;;;6.40;3.30;;;;;;;;;;5088445;28;20428;-80
2022/10/10 01:49:30;;;;;;;5.30;3.50;;;;;;;;;;5096742;28;20462;-80
2022/10/10 01:52:04;;;;;;;5.82;3.20;;;;;;;;;;5093814;28;20428;-80
2022/10/10 01:54:35;;;;;;;5.32;3.42;;;;;;;;;;5093140;28;20424;-80
2022/10/10 01:57:07;;;;;;;7.60;3.60;;;;;;;;;;5093668;28;20416;-80
2022/10/10 01:59:44;;;;;;;8.80;3.30;;;;;;;;;;5095710;28;20429;-80
2022/10/10 02:02:16;;;;;;;5.50;3.28;;;;;;;;;;5095050;28;20414;-80
2022/10/10 02:04:48;;;;;;;6.57;3.20;;;;;;;;;;5091684;28;20431;-80
2022/10/10 02:07:18;;;;;;;6.53;3.07;;;;;;;;;;5090406;28;20425;-80
2022/10/10 02:09:47;;;;;;;4.47;2.83;;;;;;;;;;5095055;28;20410;-80
2022/10/10 02:12:14;;;;;;;4.20;2.90;;;;;;;;;;5091307;28;20490;-81
2022/10/10 02:14:45;;;;;;;7.35;3.70;;;;;;;;;;5092346;28;20506;-79
2022/10/10 02:17:15;;;;;;;5.93;3.28;;;;;;;;;;5091239;28;20420;-80
2022/10/10 02:19:43;;;;;;;6.75;3.60;;;;;;;;;;5088445;28;20451;-80
2022/10/10 02:22:12;;;;;;;5.50;3.45;;;;;;;;;;5091751;28;20445;-80
2022/10/10 02:24:42;;;;;;;6.47;3.35;;;;;;;;;;5092826;28;20655;-80
2022/10/10 02:27:11;;;;;;;5.35;3.30;;;;;;;;;;5090911;28;20419;-80
2022/10/10 02:29:39;;;;;;;9.87;3.37;;;;;;;;;;5093394;28;20410;-81
2022/10/10 02:32:09;;;;;;;5.53;3.38;;;;;;;;;;5091932;28;20422;-80
2022/10/10 02:34:38;;;;;;;8.10;3.40;;;;;;;;;;5092379;28;20420;-80
2022/10/10 02:37:09;;;;;;;6.70;3.42;;;;;;;;;;5092881;28;20422;-80
2022/10/10 02:39:38;;;;;;;4.85;3.60;;;;;;;;;;5089609;28;20510;-80
2022/10/10 02:42:06;;;;;;;8.10;3.40;;;;;;;;;;5091112;28;20822;-80
2022/10/10 02:44:32;;;;;;;6.45;3.47;;;;;;;;;;5092517;28;20432;-80
2022/10/10 02:46:59;;;;;;;6.60;3.80;;;;;;;;;;5089238;28;20430;-80
2022/10/10 02:49:26;;;;;;;6.60;3.65;;;;;;;;;;5093553;28;20423;-80
2022/10/10 02:51:56;;;;;;;5.60;3.90;;;;;;;;;;5091085;28;20431;-80
2022/10/10 02:54:25;;;;;;;6.65;3.60;;;;;;;;;;5090349;28;20428;-80
2022/10/10 02:56:53;;;;;;;6.35;3.67;;;;;;;;;;5107390;27;20795;-80
2022/10/10 02:59:22;;;;;;;6.10;3.50;;;;;;;;;;5094021;28;20445;-80
2022/10/10 03:01:48;;;;;;;7.32;4.00;;;;;;;;;;5091359;28;20417;-80
2022/10/10 03:04:15;;;;;;;6.40;3.83;;;;;;;;;;5089561;28;20437;-80
2022/10/10 03:06:41;;;;;;;6.60;3.90;;;;;;;;;;5092639;28;20431;-80
2022/10/10 03:09:09;;;;;;;5.93;3.50;;;;;;;;;;5092063;28;20505;-80
2022/10/10 03:11:35;;;;;;;8.45;4.20;;;;;;;;;;5091568;28;20414;-80
2022/10/10 03:14:02;;;;;;;6.30;3.60;;;;;;;;;;5092621;28;20587;-80
2022/10/10 03:16:30;;;;;;;8.90;4.20;;;;;;;;;;5090613;28;20415;-80
2022/10/10 03:18:56;;;;;;;7.97;3.92;;;;;;;;;;5091843;28;21223;-80
2022/10/10 03:21:23;;;;;;;6.38;3.80;;;;;;;;;;5093886;28;20410;-80
2022/10/10 03:23:50;;;;;;;5.23;3.70;;;;;;;;;;5092904;28;20509;-80
2022/10/10 03:26:17;;;;;;;7.55;3.85;;;;;;;;;;5092239;28;20503;-80
2022/10/10 03:28:44;;;;;;;8.48;4.07;;;;;;;;;;5093520;28;20416;-80
2022/10/10 03:31:11;;;;;;;7.90;4.10;;;;;;;;;;5089056;28;20420;-80
2022/10/10 03:33:37;;;;;;;7.70;4.10;;;;;;;;;;5090577;28;20428;-80
2022/10/10 03:36:04;;;;;;;6.70;3.50;;;;;;;;;;5091139;28;20458;-80
2022/10/10 03:38:36;;;;;;;6.38;3.25;;;;;;;;;;5091681;28;20434;-80
2022/10/10 03:41:02;;;;;;;5.70;3.70;;;;;;;;;;5090766;28;20422;-80
2022/10/10 03:43:33;;;;;;;6.70;3.72;;;;;;;;;;5091938;28;20428;-80
2022/10/10 03:46:00;;;;;;;7.15;3.85;;;;;;;;;;5091722;28;20415;-80
2022/10/10 03:48:27;;;;;;;6.28;3.70;;;;;;;;;;5090263;28;20428;-80
2022/10/10 03:50:53;;;;;;;8.43;4.00;;;;;;;;;;5093424;28;20420;-80
2022/10/10 03:53:19;;;;;;;4.95;3.70;;;;;;;;;;5091109;28;20427;-81
2022/10/10 03:55:46;;;;;;;6.53;3.92;;;;;;;;;;5091262;28;21014;-80
2022/10/10 03:58:12;;;;;;;7.53;3.90;;;;;;;;;;5092096;28;20439;-80
2022/10/10 04:00:40;;;;;;;6.28;4.28;;;;;;;;;;5087943;28;20412;-80
2022/10/10 04:03:07;;;;;;;5.18;3.45;;;;;;;;;;5093218;28;20947;-81
2022/10/10 04:05:35;;;;;;;9.73;4.10;;;;;;;;;;5088872;28;20430;-80
2022/10/10 04:08:01;;;;;;;8.50;4.70;;;;;;;;;;5094320;28;20460;-80
2022/10/10 04:10:27;;;;;;;11.95;4.60;;;;;;;;;;5090425;28;20429;-80
2022/10/10 04:12:54;;;;;;;7.35;4.10;;;;;;;;;;5093069;28;20418;-80
2022/10/10 04:15:20;;;;;;;5.40;3.67;;;;;;;;;;5090711;28;20419;-81
2022/10/10 04:17:51;;;;;;;7.90;4.13;;;;;;;;;;5090768;28;20425;-80
2022/10/10 04:20:18;;;;;;;6.55;4.10;;;;;;;;;;5092002;28;20436;-80
2022/10/10 04:22:45;;;;;;;4.70;3.80;;;;;;;;;;5090804;28;20425;-80
2022/10/10 04:25:12;;;;;;;4.90;3.70;;;;;;;;;;5091396;28;20451;-80
2022/10/10 04:27:38;;;;;;;7.70;4.60;;;;;;;;;;5093239;28;20434;-80
2022/10/10 04:30:06;;;;;;;7.47;4.05;;;;;;;;;;5095569;28;20779;-80
2022/10/10 04:32:33;;;;;;;6.45;4.40;;;;;;;;;;5094339;28;20415;-80
2022/10/10 04:35:01;;;;;;;11.43;4.10;;;;;;;;;;5097443;28;20505;-80
2022/10/10 04:37:28;;;;;;;10.68;4.70;;;;;;;;;;5093960;28;20415;-80
2022/10/10 04:39:57;;;;;;;7.60;4.27;;;;;;;;;;5095528;28;20433;-80
2022/10/10 04:42:25;;;;;;;8.50;4.25;;;;;;;;;;5094271;28;20419;-80
2022/10/10 04:44:51;;;;;;;10.43;4.28;;;;;;;;;;5096429;28;20422;-80
2022/10/10 04:47:21;;;;;;;6.95;4.38;;;;;;;;;;5118089;27;20418;-80
2022/10/10 04:49:48;;;;;;;7.35;3.88;;;;;;;;;;5096926;28;20826;-80
2022/10/10 04:52:16;;;;;;;7.35;4.50;;;;;;;;;;5094456;28;20769;-80
2022/10/10 04:54:42;;;;;;;7.05;3.85;;;;;;;;;;5095740;28;20445;-81
2022/10/10 04:57:09;;;;;;;5.73;3.60;;;;;;;;;;5097497;28;20412;-80
2022/10/10 04:59:36;;;;;;;8.50;4.50;;;;;;;;;;5095474;28;20458;-80
2022/10/10 05:02:03;;;;;;;5.35;4.18;;;;;;;;;;5095023;28;20436;-80
2022/10/10 05:04:29;;;;;;;6.45;4.30;;;;;;;;;;5095163;28;20425;-80
2022/10/10 05:07:00;;;;;;;6.90;4.07;;;;;;;;;;5091413;28;20429;-80
2022/10/10 05:09:32;;;;;;;8.35;4.40;;;;;;;;;;5094137;28;20425;-80
2022/10/10 05:11:59;;;;;;;6.22;3.83;;;;;;;;;;5094140;28;20410;-81
2022/10/10 05:14:27;;;;;;;6.78;4.55;;;;;;;;;;5093474;28;20459;-80
2022/10/10 05:16:54;;;;;;;6.97;4.60;;;;;;;;;;5092859;28;20428;-80
2022/10/10 05:19:20;;;;;;;7.38;4.32;;;;;;;;;;5092654;28;20433;-80
2022/10/10 05:21:47;;;;;;;8.02;4.80;;;;;;;;;;5091872;28;20426;-80
2022/10/10 05:24:15;;;;;;;8.50;5.15;;;;;;;;;;5094140;28;20424;-80
2022/10/10 05:26:43;;;;;;;7.85;4.70;;;;;;;;;;5088564;28;20438;-80
2022/10/10 05:29:09;;;;;;;6.78;4.47;;;;;;;;;;5093941;28;20975;-80
2022/10/10 05:31:38;;;;;;;6.03;4.10;;;;;;;;;;5092810;28;20429;-80
2022/10/10 05:34:06;;;;;;;10.90;4.50;;;;;;;;;;5092835;28;20451;-80
2022/10/10 05:36:32;;;;;;;9.20;5.00;;;;;;;;;;5089427;28;20416;-80
2022/10/10 05:39:00;;;;;;;6.00;4.47;;;;;;;;;;5091674;28;20421;-80
2022/10/10 05:41:29;;;;;;;10.88;5.25;;;;;;;;;;5088230;28;20422;-80
2022/10/10 05:43:57;;;;;;;7.63;5.30;;;;;;;;;;5086961;28;20434;-80
2022/10/10 05:46:25;;;;;;;6.90;5.30;;;;;;;;;;5090405;28;21082;-80
2022/10/10 05:48:52;;;;;;;13.32;6.80;;;;;;;;;;5090326;28;20427;-80
2022/10/10 05:51:19;;;;;;;12.15;6.10;;;;;;;;;;5090404;28;20422;-80
2022/10/10 05:53:45;;;;;;;7.20;5.10;;;;;;;;;;5092223;28;20437;-81
2022/10/10 05:56:16;;;;;;;10.43;4.95;;;;;;;;;;5087313;28;20839;-80
2022/10/10 05:58:42;;;;;;;8.37;5.00;;;;;;;;;;5091198;28;20505;-80
2022/10/10 06:01:14;;;;;;;5.75;4.60;;;;;;;;;;5087748;28;20412;-80
2022/10/10 06:03:41;;;;;;;7.40;4.40;;;;;;;;;;5092999;28;20425;-80
2022/10/10 06:06:07;;;;;;;9.60;4.90;;;;;;;;;;5092838;28;20416;-80
2022/10/10 06:08:37;;;;;;;13.00;9.50;;;;;;;;;;5091203;28;21300;-80
2022/10/10 06:11:04;;;;;;;271.52;198.00;;;;;;;;;;5092540;28;20968;-80
2022/10/10 06:13:44;;;;;;;63.73;54.20;;;;;;;;;;5090218;28;20993;-80
2022/10/10 06:16:11;;;;;;;22.95;20.85;;;;;;;;;;5090710;28;20416;-80
2022/10/10 06:18:38;;;;;;;14.60;13.10;;;;;;;;;;5091387;28;20428;-81
2022/10/10 06:21:06;;;;;;;11.65;10.45;;;;;;;;;;5092570;28;20414;-80
2022/10/10 06:23:32;;;;;;;12.05;9.65;;;;;;;;;;5092144;28;20913;-80
2022/10/10 06:25:59;;;;;;;11.07;6.80;;;;;;;;;;5089750;28;20418;-80
2022/10/10 06:28:28;;;;;;;8.77;5.43;;;;;;;;;;5093639;28;20422;-80
2022/10/10 06:31:00;;;;;;;8.85;7.03;;;;;;;;;;5091038;28;20424;-81
2022/10/10 06:33:28;;;;;;;7.40;6.40;;;;;;;;;;5090568;28;20847;-80
2022/10/10 06:35:56;;;;;;;9.63;5.72;;;;;;;;;;5086896;28;20457;-80
2022/10/10 06:38:23;;;;;;;8.13;5.50;;;;;;;;;;5091328;28;20425;-80
2022/10/10 06:40:49;;;;;;;9.50;6.53;;;;;;;;;;5088096;28;20885;-80
2022/10/10 06:43:19;;;;;;;8.40;5.00;;;;;;;;;;5096446;28;20418;-80
2022/10/10 06:45:47;;;;;;;5.95;4.07;;;;;;;;;;5086904;28;20403;-81
2022/10/10 06:48:14;;;;;;;7.28;4.38;;;;;;;;;;5087856;28;21125;-80
2022/10/10 06:50:42;;;;;;;7.78;4.40;;;;;;;;;;5085267;28;20761;-80
2022/10/10 06:53:08;;;;;;;6.07;4.75;;;;;;;;;;5090106;28;20406;-80
2022/10/10 06:55:35;;;;;;;7.13;4.73;;;;;;;;;;5088744;28;20473;-80
2022/10/10 06:58:01;;;;;;;6.75;4.63;;;;;;;;;;5090004;28;20414;-80
2022/10/10 07:00:28;;;;;;;8.00;4.70;;;;;;;;;;5088753;28;20470;-80
2022/10/10 07:02:54;;;;;;;8.18;4.78;;;;;;;;;;5089259;28;20425;-80
2022/10/10 07:05:20;;;;;;;6.28;4.32;;;;;;;;;;5088371;28;20410;-80
2022/10/10 07:07:51;;;;;;;8.10;4.70;;;;;;;;;;5087245;28;20431;-80
2022/10/10 07:10:18;;;;;;;7.60;4.70;;;;;;;;;;5089107;28;20410;-80
2022/10/10 07:12:45;;;;;;;6.57;5.10;;;;;;;;;;5089822;28;20891;-80
2022/10/10 07:15:12;;;;;;;13.00;11.83;;;;;;;;;;5083581;28;20441;-80
2022/10/10 07:17:38;;;;;;;6.80;5.80;;;;;;;;;;5085626;28;20428;-80
2022/10/10 07:20:05;;;;;;;12.13;9.15;;;;;;;;;;5091523;28;20407;-80
2022/10/10 07:22:33;;;;;;;13.10;11.18;;;;;;;;;;5086756;28;20419;-80
2022/10/10 07:25:01;;;;;;;12.70;9.23;;;;;;;;;;5086105;28;20416;-80
2022/10/10 07:27:28;;;;;;;9.88;8.05;;;;;;;;;;5064994;28;20423;-80
2022/10/10 07:29:54;;;;;;;8.17;5.20;;;;;;;;;;5067564;28;20423;-80
2022/10/10 07:32:21;;;;;;;94.50;86.18;;;;;;;;;;5066220;28;20420;-80
2022/10/10 07:34:47;;;;;;;34.20;30.42;;;;;;;;;;5066219;28;20489;-80
2022/10/10 07:37:14;;;;;;;11.10;9.93;;;;;;;;;;5068944;28;20912;-80
2022/10/10 07:39:40;;;;;;;10.15;5.93;;;;;;;;;;5067552;28;20897;-80
2022/10/10 07:42:08;;;;;;;10.20;5.80;;;;;;;;;;5068379;28;20415;-80
2022/10/10 07:44:36;;;;;;;8.73;5.30;;;;;;;;;;5065949;28;20489;-80
2022/10/10 07:47:03;;;;;;;8.43;5.50;;;;;;;;;;5066947;28;20419;-80
2022/10/10 07:49:29;;;;;;;13.85;9.65;;;;;;;;;;5068963;28;20433;-81
2022/10/10 07:51:56;;;;;;;11.52;8.00;;;;;;;;;;5067026;28;20421;-80
2022/10/10 07:54:23;;;;;;;8.48;7.57;;;;;;;;;;5065384;28;20451;-81
2022/10/10 07:56:49;;;;;;;16.52;11.70;;;;;;;;;;5066240;28;20425;-80
2022/10/10 07:59:17;;;;;;;8.53;7.50;;;;;;;;;;5067299;28;21075;-80
2022/10/10 08:01:43;;;;;;;8.00;6.65;;;;;;;;;;5065511;28;20432;-80
2022/10/10 08:04:10;;;;;;;9.93;6.97;;;;;;;;;;5070916;28;20817;-81
2022/10/10 08:06:37;;;;;;;7.00;5.50;;;;;;;;;;5069852;28;20420;-80
2022/10/10 08:09:06;;;;;;;7.60;5.10;;;;;;;;;;5068600;28;20556;-80
2022/10/10 08:11:32;;;;;;;9.05;5.68;;;;;;;;;;5070510;28;20416;-80
2022/10/10 08:13:58;;;;;;;9.13;5.53;;;;;;;;;;5070525;28;20431;-80
2022/10/10 08:16:29;;;;;;;6.38;5.00;;;;;;;;;;5069266;28;20410;-80
2022/10/10 08:18:55;;;;;;;8.98;6.60;;;;;;;;;;5072686;28;20427;-81
2022/10/10 08:21:21;;;;;;;9.18;6.30;;;;;;;;;;5071850;28;20470;-80
2022/10/10 08:23:48;;;;;;;7.13;5.00;;;;;;;;;;5070058;28;20435;-80
2022/10/10 08:26:16;;;;;;;8.15;5.50;;;;;;;;;;5067701;28;20418;-80
2022/10/10 08:28:43;;;;;;;9.90;6.20;;;;;;;;;;5072203;28;20423;-80
2022/10/10 08:31:10;;;;;;;7.75;5.40;;;;;;;;;;5069862;28;20414;-80
2022/10/10 08:33:41;;;;;;;8.50;5.65;;;;;;;;;;5070783;28;20408;-80
2022/10/10 08:36:08;;;;;;;6.18;4.82;;;;;;;;;;5071147;28;20443;-80
2022/10/10 08:38:38;;;;;;;6.68;5.10;;;;;;;;;;5072158;28;20422;-80
2022/10/10 08:41:07;;;;;;;7.75;4.45;;;;;;;;;;5079745;28;20422;-81
2022/10/10 08:43:39;;;;;;;6.00;4.93;;;;;;;;;;5085515;28;20423;-81
2022/10/10 08:46:08;;;;;;;8.60;4.95;;;;;;;;;;5071239;28;20951;-80
2022/10/10 08:48:35;;;;;;;11.00;4.75;;;;;;;;;;5067797;28;20410;-80
2022/10/10 08:51:09;;;;;;;7.70;4.80;;;;;;;;;;5066333;28;20423;-81
2022/10/10 08:53:38;;;;;;;7.03;5.30;;;;;;;;;;5066803;28;20420;-81
2022/10/10 08:56:05;;;;;;;9.63;5.97;;;;;;;;;;5068257;28;20411;-80
2022/10/10 08:58:35;;;;;;;7.93;5.43;;;;;;;;;;5067500;28;20433;-81
2022/10/10 09:01:04;;;;;;;7.40;5.50;;;;;;;;;;5067866;28;21692;-81
2022/10/10 09:03:35;;;;;;;8.95;5.97;;;;;;;;;;5066970;28;20427;-81
2022/10/10 09:06:07;;;;;;;8.75;7.03;;;;;;;;;;5069452;28;20413;-81
2022/10/10 09:08:40;;;;;;;5.57;4.30;;;;;;;;;;5066433;28;20420;-81
2022/10/10 09:11:11;;;;;;;6.70;4.90;;;;;;;;;;5069349;28;20411;-81
2022/10/10 09:13:40;;;;;;;6.55;5.72;;;;;;;;;;5065749;28;20427;-81
2022/10/10 09:16:14;;;;;;;6.80;4.97;;;;;;;;;;5068119;28;20493;-81
2022/10/10 09:18:52;;;;;;;7.40;5.60;;;;;;;;;;5068620;28;20415;-81
2022/10/10 09:21:21;;;;;;;8.25;4.90;;;;;;;;;;5069115;28;20409;-80
2022/10/10 09:23:50;;;;;;;7.68;5.63;;;;;;;;;;5069336;28;20499;-81
2022/10/10 09:26:19;;;;;;;6.22;5.40;;;;;;;;;;5063125;28;20429;-80
2022/10/10 09:28:49;;;;;;;6.00;5.38;;;;;;;;;;5068659;28;20425;-81
2022/10/10 09:31:17;;;;;;;5.95;5.10;;;;;;;;;;5069717;28;20425;-80
2022/10/10 09:33:45;;;;;;;8.27;5.47;;;;;;;;;;5074031;28;20951;-80
2022/10/10 09:36:16;;;;;;;5.82;4.82;;;;;;;;;;5065210;28;20432;-81
2022/10/10 09:38:47;;;;;;;7.20;6.20;;;;;;;;;;5067286;28;20421;-81
2022/10/10 09:41:16;;;;;;;8.10;5.05;;;;;;;;;;5069125;28;20424;-81
2022/10/10 09:43:42;;;;;;;8.35;5.50;;;;;;;;;;5069548;28;20429;-82
2022/10/10 09:46:09;;;;;;;8.97;5.40;;;;;;;;;;5067759;28;20422;-79
2022/10/10 09:48:37;;;;;;;7.80;7.00;;;;;;;;;;5068484;28;20413;-79
2022/10/10 09:51:05;;;;;;;11.55;8.43;;;;;;;;;;5068993;28;20414;-80
2022/10/10 09:53:31;;;;;;;7.72;6.28;;;;;;;;;;5070698;28;20430;-82
2022/10/10 09:56:00;;;;;;;9.93;6.90;;;;;;;;;;5069125;28;20427;-80
2022/10/10 09:58:30;;;;;;;7.88;5.22;;;;;;;;;;5067737;28;20412;-81
2022/10/10 10:01:09;;;;;;;9.35;6.40;;;;;;;;;;5066475;28;20421;-79
2022/10/10 10:03:36;;;;;;;5.93;5.40;;;;;;;;;;5066924;28;20430;-81
2022/10/10 10:06:02;;;;;;;8.63;6.13;;;;;;;;;;5066847;28;20913;-80
2022/10/10 10:08:29;;;;;;;9.48;6.00;;;;;;;;;;5067413;28;20938;-80
2022/10/10 10:10:59;;;;;;;8.45;5.80;;;;;;;;;;5068621;28;20450;-79
2022/10/10 10:13:30;;;;;;;9.98;6.63;;;;;;;;;;5067488;28;20455;-79
2022/10/10 10:15:59;;;;;;;9.45;6.65;;;;;;;;;;5066743;28;20411;-81
2022/10/10 10:18:27;;;;;;;8.60;6.07;;;;;;;;;;5068414;28;20429;-81
2022/10/10 10:20:55;;;;;;;8.70;6.00;;;;;;;;;;5068011;28;20426;-80
2022/10/10 10:23:25;;;;;;;7.40;5.75;;;;;;;;;;5066728;28;20432;-79
2022/10/10 10:25:59;;;;;;;7.73;6.30;;;;;;;;;;5064514;28;20422;-81
2022/10/10 10:28:26;;;;;;;9.90;6.17;;;;;;;;;;5064311;28;20454;-79
2022/10/10 10:30:54;;;;;;;11.45;6.22;;;;;;;;;;5065873;28;20416;-80
2022/10/10 10:33:31;;;;;;;10.02;6.85;;;;;;;;;;5065747;28;20433;-79
2022/10/10 10:36:01;;;;;;;10.48;6.68;;;;;;;;;;5065623;28;21171;-82
2022/10/10 10:38:33;;;;;;;11.70;6.03;;;;;;;;;;5067900;28;20419;-81
2022/10/10 10:41:04;;;;;;;10.23;6.25;;;;;;;;;;5065547;28;20428;-81
2022/10/10 10:43:39;;;;;;;9.63;5.90;;;;;;;;;;5062320;28;21326;-81
2022/10/10 10:46:19;;;;;;;7.55;5.97;;;;;;;;;;5060750;28;20417;-81
2022/10/10 10:48:46;;;;;;;7.30;5.13;;;;;;;;;;5060873;28;20434;-80
2022/10/10 10:51:22;;;;;;;8.32;5.50;;;;;;;;;;5061416;28;20409;-81
2022/10/10 10:53:52;;;;;;;8.73;5.47;;;;;;;;;;5061629;28;20419;-81
2022/10/10 10:56:23;;;;;;;10.32;5.57;;;;;;;;;;5055076;28;20462;-81
2022/10/10 10:59:00;;;;;;;9.07;5.60;;;;;;;;;;5060103;28;20423;-79
2022/10/10 11:01:32;;;;;;;8.57;5.90;;;;;;;;;;5059223;28;20773;-81
2022/10/10 11:04:01;;;;;;;7.32;5.28;;;;;;;;;;5059453;28;20435;-81
2022/10/10 11:06:44;;;;;;;7.20;5.40;;;;;;;;;;5060042;28;20438;-82
2022/10/10 11:09:13;;;;;;;7.70;5.10;;;;;;;;;;5064090;28;20420;-82
2022/10/10 11:11:51;;;;;;;9.60;5.07;;;;;;;;;;5062133;28;20447;-83
2022/10/10 11:14:25;;;;;;;9.97;5.03;;;;;;;;;;5059502;28;20420;-82
2022/10/10 11:16:55;;;;;;;8.00;5.28;;;;;;;;;;5062372;28;20411;-82
2022/10/10 11:19:25;;;;;;;7.45;4.70;;;;;;;;;;5060233;28;20454;-82
2022/10/10 11:21:54;;;;;;;6.95;4.93;;;;;;;;;;5060943;28;20412;-80
2022/10/10 11:24:24;;;;;;;7.40;4.95;;;;;;;;;;5063060;28;20433;-80
2022/10/10 11:26:54;;;;;;;9.20;4.90;;;;;;;;;;5060084;28;20495;-82
2022/10/10 11:29:22;;;;;;;10.25;5.45;;;;;;;;;;5060653;28;20425;-82
2022/10/10 11:31:56;;;;;;;9.40;5.30;;;;;;;;;;5062062;28;20419;-82
2022/10/10 11:34:26;;;;;;;8.27;5.47;;;;;;;;;;5060627;28;20937;-83
2022/10/10 11:36:54;;;;;;;8.50;4.53;;;;;;;;;;5057687;28;20416;-82
2022/10/10 11:39:23;;;;;;;8.05;5.38;;;;;;;;;;5057489;28;20916;-82
2022/10/10 11:41:52;;;;;;;9.43;5.30;;;;;;;;;;5061286;28;20419;-82
2022/10/10 11:44:21;;;;;;;7.78;4.75;;;;;;;;;;5062270;28;20419;-82
2022/10/10 11:46:50;;;;;;;7.75;5.07;;;;;;;;;;5060489;28;20415;-80
2022/10/10 11:49:20;;;;;;;7.30;4.95;;;;;;;;;;5064696;28;20425;-80
2022/10/10 11:52:01;;;;;;;11.20;5.70;;;;;;;;;;5061348;28;20844;-80
2022/10/10 11:54:33;;;;;;;7.18;5.30;;;;;;;;;;5058532;28;20885;-81
2022/10/10 11:57:01;;;;;;;5.53;4.47;;;;;;;;;;5057596;28;20413;-80
2022/10/10 11:59:30;;;;;;;7.00;5.00;;;;;;;;;;5055777;28;20432;-81
2022/10/10 12:01:59;;;;;;;7.95;4.82;;;;;;;;;;5057871;28;20792;-82
2022/10/10 12:04:33;;;;;;;9.27;5.25;;;;;;;;;;5057831;28;20437;-80
2022/10/10 12:07:03;;;;;;;7.30;5.20;;;;;;;;;;5058881;28;20422;-80
2022/10/10 12:09:32;;;;;;;7.67;5.20;;;;;;;;;;5062060;28;20435;-82
2022/10/10 12:12:00;;;;;;;8.95;4.93;;;;;;;;;;5058644;28;20415;-82
2022/10/10 12:14:28;;;;;;;10.30;5.47;;;;;;;;;;5061997;28;20934;-80
2022/10/10 12:16:55;;;;;;;8.80;4.60;;;;;;;;;;5060735;28;20437;-82
2022/10/10 12:19:23;;;;;;;8.25;5.10;;;;;;;;;;5060966;28;20428;-82
2022/10/10 12:22:00;;;;;;;6.70;4.45;;;;;;;;;;5058752;28;20406;-82
2022/10/10 12:24:30;;;;;;;8.07;4.40;;;;;;;;;;5059878;28;20432;-80
2022/10/10 12:27:17;;;;;;;8.53;5.00;;;;;;;;;;5057273;28;20442;-82
2022/10/10 12:29:46;;;;;;;7.93;4.33;;;;;;;;;;5054421;28;20448;-82
2022/10/10 12:32:24;;;;;;;5.70;4.10;;;;;;;;;;5057789;28;20971;-80
2022/10/10 12:34:57;;;;;;;7.68;4.40;;;;;;;;;;5056166;28;20417;-81
2022/10/10 12:37:27;;;;;;;6.82;4.40;;;;;;;;;;5058599;28;20912;-80
2022/10/10 12:40:11;;;;;;;7.35;4.05;;;;;;;;;;5058703;28;20482;-83
2022/10/10 12:42:40;;;;;;;8.45;3.90;;;;;;;;;;5065508;28;20482;-80
2022/10/10 12:45:39;;;;;;;6.20;3.58;;;;;;;;;;5080201;27;20435;-82
2022/10/10 12:48:18;;;;;;;8.18;3.75;;;;;;;;;;5078158;28;20460;-80
2022/10/10 12:50:53;;;;;;;4.30;3.13;;;;;;;;;;5084529;28;20416;-80
2022/10/10 12:53:22;;;;;;;6.03;3.80;;;;;;;;;;5066908;28;20439;-81
2022/10/10 12:55:49;;;;;;;6.80;3.50;;;;;;;;;;5083121;28;20402;-81
2022/10/10 12:58:17;;;;;;;8.18;3.20;;;;;;;;;;5082618;28;20423;-81
2022/10/10 13:00:45;;;;;;;5.63;3.40;;;;;;;;;;5084761;27;20406;-80
2022/10/10 13:03:17;;;;;;;6.25;3.25;;;;;;;;;;5084281;28;20428;-82
2022/10/10 13:05:45;;;;;;;6.95;3.28;;;;;;;;;;5065902;28;20434;-80
2022/10/10 13:08:13;;;;;;;6.43;3.50;;;;;;;;;;5085750;28;20488;-80
2022/10/10 13:10:41;;;;;;;7.95;3.40;;;;;;;;;;5081390;28;20934;-81
2022/10/10 13:13:16;;;;;;;5.30;3.20;;;;;;;;;;5083478;28;20947;-80
2022/10/10 13:15:51;;;;;;;4.80;3.72;;;;;;;;;;5081410;27;20408;-82
2022/10/10 13:18:33;;;;;;;9.33;4.43;;;;;;;;;;5085536;28;20438;-81
2022/10/10 13:21:01;;;;;;;7.43;4.43;;;;;;;;;;5082614;28;20410;-83
2022/10/10 13:23:27;;;;;;;8.20;3.95;;;;;;;;;;5080494;28;20437;-80
2022/10/10 13:25:54;;;;;;;6.80;4.10;;;;;;;;;;5080836;28;20422;-84
2022/10/10 13:28:22;;;;;;;7.07;3.92;;;;;;;;;;5083054;28;20797;-83
2022/10/10 13:30:48;;;;;;;7.40;4.40;;;;;;;;;;5079687;28;20777;-80
2022/10/10 13:33:16;;;;;;;6.88;3.67;;;;;;;;;;5084669;28;20433;-80
2022/10/10 13:35:43;;;;;;;8.00;4.30;;;;;;;;;;5081692;28;20417;-83
2022/10/10 13:38:12;;;;;;;6.85;3.72;;;;;;;;;;5080303;28;20429;-80
2022/10/10 13:40:40;;;;;;;6.78;3.97;;;;;;;;;;5081691;27;20419;-81
2022/10/10 13:43:11;;;;;;;6.32;3.85;;;;;;;;;;5083254;28;20791;-80
2022/10/10 13:45:44;;;;;;;6.95;4.70;;;;;;;;;;5083069;27;21065;-81
2022/10/10 13:48:12;;;;;;;5.78;3.88;;;;;;;;;;5083481;28;20440;-81
2022/10/10 13:50:50;;;;;;;6.65;3.90;;;;;;;;;;5078723;27;20419;-81
2022/10/10 13:53:31;;;;;;;8.30;4.43;;;;;;;;;;5082477;28;20425;-81
2022/10/10 13:56:00;;;;;;;6.20;5.00;;;;;;;;;;5082661;27;20417;-81
2022/10/10 13:58:26;;;;;;;8.52;5.07;;;;;;;;;;5079674;28;20431;-80
2022/10/10 14:00:56;;;;;;;8.13;4.40;;;;;;;;;;5083628;27;20412;-80
2022/10/10 14:03:23;;;;;;;8.93;4.53;;;;;;;;;;5081867;28;20425;-81
2022/10/10 14:05:49;;;;;;;7.65;4.25;;;;;;;;;;5079784;27;20828;-82
2022/10/10 14:08:17;;;;;;;9.10;4.22;;;;;;;;;;5081385;28;20446;-82
2022/10/10 14:10:55;;;;;;;8.87;4.03;;;;;;;;;;5082808;27;20414;-82
2022/10/10 14:13:21;;;;;;;9.95;4.10;;;;;;;;;;5078993;28;20415;-82
2022/10/10 14:15:48;;;;;;;8.13;4.47;;;;;;;;;;5078896;27;20420;-82
2022/10/10 14:18:17;;;;;;;5.63;4.55;;;;;;;;;;5078864;28;21053;-82
2022/10/10 14:20:43;;;;;;;6.97;4.35;;;;;;;;;;5081109;28;20429;-82
2022/10/10 14:23:10;;;;;;;6.70;4.78;;;;;;;;;;5082389;28;20921;-82
2022/10/10 14:25:38;;;;;;;7.88;4.20;;;;;;;;;;5078426;27;20410;-82
2022/10/10 14:28:06;;;;;;;6.65;4.40;;;;;;;;;;5081410;28;20420;-81
2022/10/10 14:30:34;;;;;;;6.78;4.70;;;;;;;;;;5083220;27;20751;-81
2022/10/10 14:33:01;;;;;;;6.40;4.70;;;;;;;;;;5063740;28;20422;-81
2022/10/10 14:35:27;;;;;;;8.60;4.25;;;;;;;;;;5085189;27;20408;-81
2022/10/10 14:37:54;;;;;;;10.05;4.43;;;;;;;;;;5081874;28;20421;-83
2022/10/10 14:40:21;;;;;;;8.37;4.30;;;;;;;;;;5081189;27;20410;-80
2022/10/10 14:42:47;;;;;;;8.75;4.15;;;;;;;;;;5081583;28;20919;-82
2022/10/10 14:45:17;;;;;;;7.40;3.95;;;;;;;;;;5081226;28;20532;-82
2022/10/10 14:47:43;;;;;;;6.22;4.32;;;;;;;;;;5079537;28;20433;-83
2022/10/10 14:50:14;;;;;;;7.93;4.68;;;;;;;;;;5081653;27;20415;-81
2022/10/10 14:52:40;;;;;;;8.88;5.80;;;;;;;;;;5082359;28;20418;-80